Time;durP1;ratioP1;P1;durP2;ratioP2;P2;SDS_P1;SDS_P2;PMS_P1;PMS_P2;Temp;Humidity;BMP_temperature;BMP_pressure;BME280_temperature;BME280_humidity;BME280_pressure;Samples;Min_cycle;Max_cycle;Signal;HPM_P1;HPM_P2
2023/08/22 00:00:35;;;;;;;6.70;6.10;;;;;;;31.17;67.56;98913.22;4945312;28;103325;-61
2023/08/22 00:03:03;;;;;;;8.32;6.93;;;;;;;30.92;68.61;98916.16;4944578;28;103119;-60
2023/08/22 00:05:31;;;;;;;9.57;8.23;;;;;;;29.77;74.61;98911.94;4939214;28;102740;-61
2023/08/22 00:08:05;;;;;;;8.02;7.22;;;;;;;29.97;74.21;98920.72;4943557;28;104300;-61
2023/08/22 00:10:33;;;;;;;7.22;6.63;;;;;;;30.49;71.97;98915.59;4948459;28;103272;-61
2023/08/22 00:13:03;;;;;;;8.63;7.82;;;;;;;30.04;73.17;98915.19;4942810;28;104319;-61
2023/08/22 00:15:31;;;;;;;8.00;7.20;;;;;;;30.12;73.33;98910.25;4943130;28;102868;-60
2023/08/22 00:17:59;;;;;;;6.03;5.63;;;;;;;30.61;70.91;98913.75;4946227;28;102884;-60
2023/08/22 00:20:28;;;;;;;6.63;6.05;;;;;;;30.82;69.54;98918.66;4943328;28;103561;-60
2023/08/22 00:22:56;;;;;;;7.50;6.80;;;;;;;30.86;69.00;98907.03;4938086;28;103260;-60
2023/08/22 00:25:23;;;;;;;5.35;4.95;;;;;;;30.91;68.39;98904.41;4942118;28;103114;-60
2023/08/22 00:27:52;;;;;;;7.57;6.88;;;;;;;30.81;69.16;98904.19;4947750;28;103910;-60
2023/08/22 00:30:21;;;;;;;7.93;7.23;;;;;;;30.35;71.29;98910.34;4937034;28;103631;-60
2023/08/22 00:32:51;;;;;;;8.55;7.65;;;;;;;29.40;77.22;98896.69;4944764;28;104340;-60
2023/08/22 00:39:20;;;;;;;7.50;6.80;;;;;;;30.30;72.35;98896.56;4924634;28;104242;-78
2023/08/22 00:41:48;;;;;;;8.05;7.28;;;;;;;30.13;72.77;98895.56;4908044;28;104247;-77
2023/08/22 00:44:16;;;;;;;7.63;6.93;;;;;;;29.99;72.96;98899.53;4924716;28;103292;-76
2023/08/22 00:46:46;;;;;;;8.10;7.40;;;;;;;29.55;75.07;98903.44;4924546;28;102902;-77
2023/08/22 00:49:14;;;;;;;8.93;8.03;;;;;;;28.53;79.59;98903.09;4926856;28;102714;-78
2023/08/22 00:51:42;;;;;;;8.30;7.55;;;;;;;28.85;78.54;98896.59;4908567;28;104464;-78
2023/08/22 00:54:13;;;;;;;8.27;7.47;;;;;;;29.20;77.36;98895.00;4925325;28;103354;-76
2023/08/22 00:56:41;;;;;;;7.70;7.00;;;;;;;29.54;75.27;98892.75;4926980;28;102688;-77
2023/08/22 00:59:09;;;;;;;8.57;7.78;;;;;;;28.96;77.45;98893.16;4925935;28;103391;-77
2023/08/22 01:01:37;;;;;;;7.20;6.60;;;;;;;29.34;76.42;98890.25;4929976;28;103312;-77
2023/08/22 01:04:07;;;;;;;7.63;6.87;;;;;;;29.60;74.70;98894.56;4929240;28;103126;-77
2023/08/22 01:06:46;;;;;;;6.93;6.40;;;;;;;29.89;73.24;98896.53;4930694;28;102888;-77
2023/08/22 01:09:28;;;;;;;8.60;7.70;;;;;;;29.57;74.31;98889.59;4930899;28;103058;-77
2023/08/22 01:12:05;;;;;;;10.33;7.23;;;;;;;29.11;77.25;98885.44;4929873;28;103956;-77
2023/08/22 01:14:39;;;;;;;8.50;7.70;;;;;;;28.99;77.44;98884.53;4930303;28;103687;-77
2023/08/22 01:17:08;;;;;;;9.07;8.27;;;;;;;28.19;81.30;98891.63;4928087;28;102816;-77
2023/08/22 01:19:37;;;;;;;8.90;8.00;;;;;;;28.58;79.86;98879.63;4929152;28;103147;-77
2023/08/22 01:22:07;;;;;;;9.55;7.97;;;;;;;28.20;81.05;98881.59;4929437;28;103021;-77
2023/08/22 01:24:37;;;;;;;10.05;8.70;;;;;;;27.03;88.05;98889.94;4929740;28;103158;-77
2023/08/22 01:27:08;;;;;;;7.65;7.05;;;;;;;28.15;82.41;98884.97;4913024;28;102625;-78
2023/08/22 01:29:45;;;;;;;8.55;7.75;;;;;;;27.81;83.99;98871.78;4930026;28;102555;-77
2023/08/22 01:32:24;;;;;;;9.63;8.73;;;;;;;27.61;84.97;98885.44;4912341;28;104481;-76
2023/08/22 01:34:58;;;;;;;8.15;7.45;;;;;;;28.59;81.02;98875.03;4912212;28;103523;-77
2023/08/22 01:37:31;;;;;;;8.93;8.05;;;;;;;28.38;80.43;98884.38;4912528;28;102782;-77
2023/08/22 01:40:04;;;;;;;9.55;8.55;;;;;;;27.88;83.01;98883.41;4928100;28;104112;-77
2023/08/22 01:42:33;;;;;;;8.57;7.73;;;;;;;28.03;83.72;98894.88;4928824;28;104045;-77
2023/08/22 01:45:00;;;;;;;5.78;5.38;;;;;;;29.02;78.34;98891.41;4929061;28;103231;-77
2023/08/22 01:47:28;;;;;;;7.90;7.13;;;;;;;28.99;77.54;98892.72;4930403;28;102875;-76
2023/08/22 01:49:56;;;;;;;5.90;5.50;;;;;;;29.27;76.11;98879.47;4929298;28;102554;-77
2023/08/22 01:52:24;;;;;;;6.87;6.30;;;;;;;29.36;75.50;98887.34;4928224;28;104128;-77
2023/08/22 01:54:54;;;;;;;7.80;7.00;;;;;;;29.39;74.87;98881.44;4929402;28;103195;-77
2023/08/22 01:57:22;;;;;;;8.50;7.70;;;;;;;29.06;76.34;98882.56;4928049;28;102720;-76
2023/08/22 01:59:50;;;;;;;9.32;8.25;;;;;;;28.25;81.20;98873.63;4912225;28;102759;-77
2023/08/22 02:02:18;;;;;;;9.88;8.93;;;;;;;27.54;86.29;98875.63;4912130;28;103376;-77
2023/08/22 02:04:49;;;;;;;9.32;8.30;;;;;;;27.61;85.98;98881.88;4911620;28;104175;-78
2023/08/22 02:07:17;;;;;;;7.53;6.82;;;;;;;28.67;80.09;98882.94;4928398;28;102802;-77
2023/08/22 02:09:44;;;;;;;8.43;7.72;;;;;;;28.73;79.13;98876.63;4911343;28;104349;-77
2023/08/22 02:12:14;;;;;;;8.10;7.40;;;;;;;28.57;80.19;98877.16;4912346;28;104258;-77
2023/08/22 02:14:44;;;;;;;7.63;6.93;;;;;;;28.91;78.07;98879.41;4928888;28;103284;-77
2023/08/22 02:17:12;;;;;;;5.53;5.05;;;;;;;29.23;76.65;98875.53;4911926;28;102536;-76
2023/08/22 02:19:41;;;;;;;8.02;7.25;;;;;;;28.35;80.65;98868.53;4912155;28;102808;-77
2023/08/22 02:22:09;;;;;;;6.97;6.28;;;;;;;28.95;78.18;98874.31;4912025;28;104334;-77
2023/08/22 02:24:37;;;;;;;6.20;5.72;;;;;;;29.31;76.11;98869.78;4912346;28;103361;-77
2023/08/22 02:27:05;;;;;;;8.27;7.57;;;;;;;29.04;76.24;98871.09;4928782;28;103153;-77
2023/08/22 02:29:35;;;;;;;8.15;7.35;;;;;;;28.53;79.60;98870.50;4928343;28;103435;-78
2023/08/22 02:32:03;;;;;;;9.20;8.32;;;;;;;27.23;87.30;98873.63;4910155;28;103228;-77
2023/08/22 02:34:30;;;;;;;9.05;8.25;;;;;;;27.61;86.01;98879.19;4928730;28;103231;-78
2023/08/22 02:36:58;;;;;;;8.43;7.53;;;;;;;28.00;83.97;98876.25;4911207;28;103389;-78
2023/08/22 02:39:27;;;;;;;6.40;5.80;;;;;;;28.77;79.64;98875.13;4911370;28;102880;-77
2023/08/22 02:41:55;;;;;;;7.80;7.00;;;;;;;28.83;78.37;98873.41;4926388;28;103869;-78
2023/08/22 02:44:25;;;;;;;8.77;7.97;;;;;;;27.86;83.88;98877.38;4927497;28;103176;-77
2023/08/22 02:46:54;;;;;;;8.40;7.70;;;;;;;27.58;85.05;98883.16;4927272;28;102828;-77
2023/08/22 02:49:22;;;;;;;9.17;8.37;;;;;;;27.88;83.70;98888.84;4928542;28;102811;-77
2023/08/22 02:51:50;;;;;;;7.57;6.88;;;;;;;28.43;81.31;98889.19;4910940;28;104375;-77
2023/08/22 02:54:17;;;;;;;7.50;6.80;;;;;;;28.29;81.74;98895.75;4911555;28;103387;-77
2023/08/22 02:56:45;;;;;;;8.27;7.47;;;;;;;28.44;80.47;98882.69;4910019;28;102521;-77
2023/08/22 02:59:13;;;;;;;7.70;7.05;;;;;;;28.46;80.52;98883.31;4929008;28;102778;-77
2023/08/22 03:01:43;;;;;;;5.88;5.38;;;;;;;28.68;79.62;98879.19;4928503;28;103229;-77
2023/08/22 03:04:12;;;;;;;7.80;7.10;;;;;;;28.75;77.56;98880.78;4910988;28;103277;-77
2023/08/22 03:06:40;;;;;;;7.17;6.67;;;;;;;28.60;79.45;98884.88;4928470;28;102667;-77
2023/08/22 03:09:08;;;;;;;8.50;7.70;;;;;;;28.40;79.67;98873.31;4911836;28;102678;-77
2023/08/22 03:11:36;;;;;;;9.47;8.57;;;;;;;28.16;81.11;98875.78;4911001;28;104011;-77
2023/08/22 03:14:08;;;;;;;7.63;7.00;;;;;;;28.40;80.54;98876.03;4911149;28;105224;-78
2023/08/22 03:16:36;;;;;;;5.75;5.35;;;;;;;28.74;78.75;98867.44;4911242;28;102959;-76
2023/08/22 03:19:04;;;;;;;7.75;7.07;;;;;;;28.87;77.45;98877.34;4927715;28;102699;-77
2023/08/22 03:21:33;;;;;;;7.75;7.10;;;;;;;28.61;78.46;98873.75;4909309;28;105808;-77
2023/08/22 03:24:05;;;;;;;8.25;7.55;;;;;;;28.51;78.69;98878.03;4926024;28;103138;-77
2023/08/22 03:26:34;;;;;;;9.35;8.45;;;;;;;27.30;85.71;98870.91;4927475;28;102574;-77
2023/08/22 03:29:03;;;;;;;7.82;7.10;;;;;;;28.04;82.35;98877.50;4910537;28;103956;-77
2023/08/22 03:31:32;;;;;;;7.68;6.97;;;;;;;28.14;81.87;98880.59;4910479;28;104171;-77
2023/08/22 03:34:00;;;;;;;8.05;7.35;;;;;;;28.27;80.36;98876.13;4927963;28;102919;-77
2023/08/22 03:36:28;;;;;;;8.63;7.93;;;;;;;28.34;79.70;98882.34;4910823;28;102818;-77
2023/08/22 03:39:01;;;;;;;9.13;8.23;;;;;;;27.56;83.36;98876.28;4927016;28;103845;-77
2023/08/22 03:41:29;;;;;;;8.40;7.70;;;;;;;27.85;82.81;98875.72;4926167;28;103971;-77
2023/08/22 03:44:00;;;;;;;8.23;7.53;;;;;;;27.62;83.00;98878.13;4910306;28;106336;-77
2023/08/22 03:46:28;;;;;;;8.00;7.30;;;;;;;27.62;84.19;98878.13;4925812;28;102747;-77
2023/08/22 03:49:14;;;;;;;6.50;6.00;;;;;;;28.36;80.20;98874.78;4910317;28;103912;-78
2023/08/22 03:51:42;;;;;;;8.73;7.97;;;;;;;27.61;82.46;98876.47;4910593;28;104478;-77
2023/08/22 03:54:12;;;;;;;7.55;6.88;;;;;;;28.13;80.90;98878.91;4909852;28;103471;-77
2023/08/22 03:56:40;;;;;;;9.40;8.50;;;;;;;27.15;85.25;98876.56;4926954;28;102527;-77
2023/08/22 03:59:08;;;;;;;8.32;7.68;;;;;;;27.61;84.30;98874.59;4910791;28;102963;-76
2023/08/22 04:01:36;;;;;;;5.80;5.40;;;;;;;28.31;80.10;98867.31;4927307;28;103285;-77
2023/08/22 04:04:05;;;;;;;6.68;6.07;;;;;;;28.49;78.49;98875.53;4926495;28;103370;-78
2023/08/22 04:06:33;;;;;;;5.63;5.22;;;;;;;28.75;77.04;98874.50;4910387;28;102947;-77
2023/08/22 04:09:01;;;;;;;8.65;7.75;;;;;;;28.47;77.56;98872.22;4927044;28;102964;-77
2023/08/22 04:11:30;;;;;;;8.82;8.02;;;;;;;28.05;79.90;98876.47;4924435;28;104160;-77
2023/08/22 04:13:58;;;;;;;8.10;7.30;;;;;;;28.33;79.12;98883.38;4927214;28;103077;-77
2023/08/22 04:16:26;;;;;;;6.90;6.30;;;;;;;28.45;77.99;98878.91;4926590;28;102765;-77
2023/08/22 04:18:54;;;;;;;8.43;7.72;;;;;;;28.04;78.83;98882.13;4925885;28;104390;-77
2023/08/22 04:21:21;;;;;;;7.60;7.00;;;;;;;27.80;82.37;98885.56;4916546;28;104484;-76
2023/08/22 04:23:50;;;;;;;9.00;7.95;;;;;;;27.94;80.19;98884.44;4939846;28;102534;-78
2023/08/22 04:26:18;;;;;;;10.60;8.77;;;;;;;27.38;83.67;98892.38;4945612;28;102532;-78
2023/08/22 04:28:50;;;;;;;7.20;6.60;;;;;;;28.06;80.96;98890.88;4925016;28;103834;-77
2023/08/22 04:31:20;;;;;;;7.32;6.80;;;;;;;28.37;78.83;98892.78;4931612;28;102873;-77
2023/08/22 04:33:48;;;;;;;6.78;6.28;;;;;;;28.56;77.43;98892.63;4910529;28;102958;-77
2023/08/22 04:36:16;;;;;;;8.20;7.50;;;;;;;28.19;78.91;98899.78;4911117;28;102600;-77
2023/08/22 04:38:44;;;;;;;8.83;7.93;;;;;;;27.97;81.08;98898.41;4929784;28;102803;-77
2023/08/22 04:41:12;;;;;;;8.93;8.13;;;;;;;27.76;81.98;98898.75;4931433;28;103028;-77
2023/08/22 04:43:57;;;;;;;7.95;7.35;;;;;;;27.95;81.20;98905.13;4929213;28;103553;-78
2023/08/22 04:46:25;;;;;;;8.00;7.30;;;;;;;28.25;78.93;98908.09;4929684;28;102727;-77
2023/08/22 04:48:53;;;;;;;8.43;7.63;;;;;;;28.43;78.51;98913.63;4897518;28;103994;-77
2023/08/22 04:51:21;;;;;;;8.70;8.00;;;;;;;27.82;82.26;98916.84;4912869;28;104000;-77
2023/08/22 04:53:52;;;;;;;7.53;6.82;;;;;;;28.32;79.51;98908.91;4913183;28;104846;-78
2023/08/22 04:56:20;;;;;;;7.63;7.03;;;;;;;28.55;77.84;98903.69;4913463;28;102881;-77
2023/08/22 04:58:48;;;;;;;7.43;6.82;;;;;;;28.67;76.58;98907.41;4930019;28;103884;-77
2023/08/22 05:01:18;;;;;;;9.73;8.73;;;;;;;27.85;81.42;98916.44;4912082;28;103670;-77
2023/08/22 05:03:47;;;;;;;10.48;9.38;;;;;;;27.23;85.43;98921.63;4929015;28;103076;-77
2023/08/22 05:06:15;;;;;;;8.40;7.70;;;;;;;27.83;83.69;98923.13;4913188;28;102538;-78
2023/08/22 05:08:43;;;;;;;9.40;8.40;;;;;;;28.16;81.20;98916.50;4930095;28;102864;-76
2023/08/22 05:11:13;;;;;;;7.18;6.68;;;;;;;28.30;80.37;98924.56;4912831;28;103218;-78
2023/08/22 05:13:41;;;;;;;8.63;7.72;;;;;;;28.52;78.38;98929.44;4912753;28;105021;-77
2023/08/22 05:16:09;;;;;;;6.93;6.30;;;;;;;28.69;77.59;98929.75;4913255;28;102573;-77
2023/08/22 05:18:39;;;;;;;8.40;7.70;;;;;;;28.66;77.89;98925.59;4913122;28;105287;-77
2023/08/22 05:21:09;;;;;;;8.80;8.10;;;;;;;28.11;80.70;98921.78;4928664;28;103208;-77
2023/08/22 05:23:38;;;;;;;8.02;7.32;;;;;;;28.42;79.16;98928.25;4912410;28;103185;-77
2023/08/22 05:26:06;;;;;;;7.80;7.00;;;;;;;28.57;78.66;98921.47;4911837;28;102864;-77
2023/08/22 05:28:34;;;;;;;6.30;5.80;;;;;;;28.69;77.87;98922.44;4912490;28;104293;-77
2023/08/22 05:31:02;;;;;;;7.93;7.23;;;;;;;28.77;77.52;98921.34;4912805;28;104211;-77
2023/08/22 05:33:35;;;;;;;6.30;5.80;;;;;;;28.97;76.66;98932.88;4912740;28;103299;-77
2023/08/22 05:36:05;;;;;;;6.22;5.72;;;;;;;29.19;75.12;98931.41;4928979;28;102640;-77
2023/08/22 05:38:35;;;;;;;6.37;5.87;;;;;;;29.33;74.02;98924.00;4912903;28;103929;-77
2023/08/22 05:41:03;;;;;;;6.68;6.18;;;;;;;29.38;73.81;98926.03;4928473;28;103197;-78
2023/08/22 05:43:32;;;;;;;8.83;7.90;;;;;;;29.26;74.86;98929.50;4925753;28;103297;-77
2023/08/22 05:46:00;;;;;;;6.55;6.05;;;;;;;29.26;75.89;98926.75;4928510;28;102646;-77
2023/08/22 05:48:28;;;;;;;7.47;6.77;;;;;;;29.46;74.60;98920.28;4929742;28;103054;-77
2023/08/22 05:50:57;;;;;;;8.00;7.28;;;;;;;29.29;75.71;98931.75;4925892;28;104959;-77
2023/08/22 05:53:27;;;;;;;6.10;5.50;;;;;;;29.52;74.64;98932.97;4912377;28;103503;-77
2023/08/22 05:55:55;;;;;;;8.33;6.50;;;;;;;29.35;74.25;98934.63;4935679;28;102787;-78
2023/08/22 05:58:23;;;;;;;7.88;6.57;;;;;;;29.48;74.55;98931.75;4933116;28;102813;-77
2023/08/22 06:00:53;;;;;;;7.05;6.45;;;;;;;29.46;73.88;98931.16;4928188;28;103179;-77
2023/08/22 06:03:21;;;;;;;6.33;5.83;;;;;;;29.71;73.53;98926.47;4909250;28;103177;-77
2023/08/22 06:05:50;;;;;;;5.70;5.18;;;;;;;29.96;72.05;98926.41;4908865;28;103351;-77
2023/08/22 06:08:18;;;;;;;7.87;7.07;;;;;;;29.78;72.86;98929.97;4926535;28;102816;-77
2023/08/22 06:10:48;;;;;;;5.53;5.10;;;;;;;30.08;72.18;98930.84;4927471;28;103269;-77
2023/08/22 06:13:16;;;;;;;5.82;5.32;;;;;;;30.21;70.33;98925.22;4915715;28;104113;-77
2023/08/22 06:15:46;;;;;;;6.10;5.57;;;;;;;30.41;69.82;98931.25;4919958;28;102809;-77
2023/08/22 06:18:17;;;;;;;6.18;5.40;;;;;;;30.59;69.82;98932.25;4935286;28;102627;-77
2023/08/22 06:20:46;;;;;;;6.10;5.60;;;;;;;30.75;69.27;98926.09;4931619;28;103612;-78
2023/08/22 06:23:14;;;;;;;6.73;6.13;;;;;;;30.65;68.34;98931.31;4924649;28;102989;-77
2023/08/22 06:25:42;;;;;;;9.13;8.23;;;;;;;30.18;73.21;98925.66;4909095;28;102950;-77
2023/08/22 06:28:12;;;;;;;7.87;7.17;;;;;;;30.60;72.45;98932.00;4909312;28;104083;-77
2023/08/22 06:30:40;;;;;;;7.00;6.33;;;;;;;31.00;70.51;98929.47;4908503;28;103734;-78
2023/08/22 06:33:08;;;;;;;10.02;9.13;;;;;;;30.17;72.47;98926.75;4924249;28;103166;-77
2023/08/22 06:35:36;;;;;;;6.03;5.60;;;;;;;30.92;70.46;98927.06;4910016;28;102825;-78
2023/08/22 06:38:04;;;;;;;9.63;8.67;;;;;;;30.61;71.80;98930.94;4908799;28;102752;-77
2023/08/22 06:40:36;;;;;;;9.13;8.20;;;;;;;30.27;69.43;98932.47;4910374;28;103457;-78
2023/08/22 06:43:05;;;;;;;9.73;7.53;;;;;;;30.35;69.24;98934.84;4927019;28;103331;-77
2023/08/22 06:45:38;;;;;;;7.10;6.50;;;;;;;30.86;68.23;98928.00;4928006;28;102863;-77
2023/08/22 06:48:08;;;;;;;8.87;6.97;;;;;;;30.95;67.92;98932.09;4927523;28;102712;-76
2023/08/22 06:50:36;;;;;;;7.15;6.53;;;;;;;31.03;67.12;98929.00;4910966;28;103530;-77
2023/08/22 06:53:06;;;;;;;10.18;7.70;;;;;;;30.38;69.79;98936.31;4927851;28;103192;-77
2023/08/22 06:55:34;;;;;;;8.07;7.05;;;;;;;30.90;67.70;98929.22;4926899;28;102812;-77
2023/08/22 06:58:02;;;;;;;6.63;6.03;;;;;;;31.27;66.13;98936.13;4927804;28;102611;-77
2023/08/22 07:00:30;;;;;;;6.25;5.75;;;;;;;31.60;66.93;98945.63;4927879;28;103591;-77
2023/08/22 07:02:59;;;;;;;6.67;6.07;;;;;;;31.79;65.26;98947.13;4910888;28;103422;-77
2023/08/22 07:05:27;;;;;;;8.60;7.65;;;;;;;30.76;69.18;98952.31;4927615;28;102832;-77
2023/08/22 07:07:55;;;;;;;7.43;6.32;;;;;;;31.75;65.99;98951.44;4928915;28;102677;-78
2023/08/22 07:10:25;;;;;;;8.83;7.30;;;;;;;32.03;64.01;98946.00;4928301;28;103211;-77
2023/08/22 07:12:53;;;;;;;6.32;5.75;;;;;;;32.36;62.31;98946.16;4928029;28;103129;-77
2023/08/22 07:15:21;;;;;;;7.00;6.40;;;;;;;32.44;62.00;98951.22;4928581;28;102704;-78
2023/08/22 07:17:49;;;;;;;6.38;5.78;;;;;;;32.82;60.92;98955.16;4911121;28;102621;-77
2023/08/22 07:20:19;;;;;;;6.47;5.88;;;;;;;32.95;60.58;98949.38;4928194;28;103334;-78
2023/08/22 07:22:47;;;;;;;7.38;6.68;;;;;;;32.67;62.67;98945.63;4910595;28;103192;-77
2023/08/22 07:25:17;;;;;;;5.25;4.75;;;;;;;33.47;60.84;98947.19;4928387;28;102569;-78
2023/08/22 07:27:45;;;;;;;6.43;5.90;;;;;;;33.33;58.82;98943.97;4912109;28;102719;-76
2023/08/22 07:30:13;;;;;;;6.90;6.13;;;;;;;33.38;59.46;98952.25;4927039;28;103304;-77
2023/08/22 07:32:41;;;;;;;7.20;6.40;;;;;;;33.60;59.65;98953.16;4928504;28;103299;-78
2023/08/22 07:35:10;;;;;;;6.88;6.28;;;;;;;33.78;59.17;98950.13;4931213;28;102512;-77
2023/08/22 07:37:40;;;;;;;8.53;7.30;;;;;;;33.04;60.47;98950.63;4930036;28;102870;-77
2023/08/22 07:40:09;;;;;;;7.32;6.63;;;;;;;33.95;58.66;98954.72;4926681;28;103284;-77
2023/08/22 07:42:36;;;;;;;6.13;5.63;;;;;;;33.38;59.74;98952.25;4927581;28;103226;-77
2023/08/22 07:45:05;;;;;;;5.57;5.07;;;;;;;34.36;57.09;98951.38;4928055;28;102630;-77
2023/08/22 07:47:33;;;;;;;8.57;6.55;;;;;;;33.55;60.71;98958.53;4928585;28;102639;-76
2023/08/22 07:50:01;;;;;;;6.55;5.88;;;;;;;34.47;57.16;98964.13;4927690;28;103238;-77
2023/08/22 07:52:30;;;;;;;7.30;6.57;;;;;;;34.04;58.59;98964.16;4910477;28;103138;-76
2023/08/22 07:54:59;;;;;;;8.45;7.72;;;;;;;32.87;60.08;98963.47;4916148;28;102855;-77
2023/08/22 07:57:29;;;;;;;8.30;6.70;;;;;;;32.58;61.77;98958.06;4936784;28;102981;-77
2023/08/22 07:59:58;;;;;;;7.72;6.93;;;;;;;34.09;58.22;98961.50;4942052;28;102937;-77
2023/08/22 08:02:26;;;;;;;7.13;5.78;;;;;;;34.36;57.30;98957.69;4943211;28;103338;-77
2023/08/22 08:04:56;;;;;;;5.90;5.32;;;;;;;35.75;54.00;98954.78;4940408;28;102640;-77
2023/08/22 08:07:24;;;;;;;6.97;6.28;;;;;;;35.65;52.67;98962.94;4918404;28;103906;-76
2023/08/22 08:09:52;;;;;;;6.72;6.13;;;;;;;35.68;54.06;98958.88;4934848;28;104079;-76
2023/08/22 08:12:21;;;;;;;6.17;5.57;;;;;;;35.04;54.89;98958.06;4910186;28;103484;-76
2023/08/22 08:14:49;;;;;;;6.07;5.15;;;;;;;35.83;54.71;98965.25;4927783;28;102843;-76
2023/08/22 08:17:18;;;;;;;7.37;5.60;;;;;;;35.46;54.33;98951.56;4927402;28;103064;-77
2023/08/22 08:19:46;;;;;;;5.43;4.93;;;;;;;36.99;52.42;98954.63;4925853;28;103212;-76
2023/08/22 08:22:15;;;;;;;7.00;6.07;;;;;;;34.66;54.33;98962.72;4914641;28;103264;-76
2023/08/22 08:24:43;;;;;;;5.55;5.05;;;;;;;35.59;53.58;98955.78;4926260;28;102788;-77
2023/08/22 08:27:11;;;;;;;5.15;4.75;;;;;;;36.83;52.23;98952.09;4925492;28;104100;-77
2023/08/22 08:29:40;;;;;;;5.90;5.13;;;;;;;36.68;50.76;98958.41;4926260;28;103144;-77
2023/08/22 08:32:08;;;;;;;5.80;4.47;;;;;;;35.02;51.82;98954.78;4925683;28;103851;-77
2023/08/22 08:34:36;;;;;;;5.45;4.70;;;;;;;35.22;52.85;98960.47;4927042;28;102842;-76
2023/08/22 08:37:05;;;;;;;7.00;4.75;;;;;;;36.58;50.39;98952.88;4927602;28;102856;-77
2023/08/22 08:39:32;;;;;;;6.90;5.37;;;;;;;34.44;54.00;98964.66;4927006;28;103568;-76
2023/08/22 08:42:04;;;;;;;6.30;4.68;;;;;;;35.59;52.01;98954.97;4927135;28;103218;-77
2023/08/22 08:44:35;;;;;;;9.50;5.07;;;;;;;35.68;52.29;98959.66;4926449;28;102528;-76
2023/08/22 08:47:04;;;;;;;6.20;4.77;;;;;;;36.81;50.75;98952.38;4927357;28;103803;-78
2023/08/22 08:49:33;;;;;;;4.97;4.47;;;;;;;36.21;50.18;98952.25;4926365;28;103300;-77
2023/08/22 08:52:05;;;;;;;6.77;4.80;;;;;;;37.39;48.40;98947.41;4927690;28;103361;-76
2023/08/22 08:54:36;;;;;;;5.35;4.63;;;;;;;37.72;47.22;98953.16;4925921;28;102757;-77
2023/08/22 08:57:04;;;;;;;6.07;4.87;;;;;;;37.47;47.27;98949.63;4926920;28;102804;-77
2023/08/22 08:59:32;;;;;;;6.82;4.38;;;;;;;38.32;46.27;98950.44;4927072;28;103235;-77
2023/08/22 09:02:00;;;;;;;6.57;4.25;;;;;;;38.22;45.67;98957.63;4928511;28;103759;-76
2023/08/22 09:04:29;;;;;;;6.07;3.90;;;;;;;39.12;44.22;98949.03;4934208;28;102904;-76
2023/08/22 09:06:57;;;;;;;5.30;4.00;;;;;;;39.61;42.44;98957.16;4930062;28;102649;-77
2023/08/22 09:09:33;;;;;;;6.68;4.20;;;;;;;36.50;47.58;98950.69;4908407;28;103303;-77
2023/08/22 09:12:06;;;;;;;6.73;4.00;;;;;;;37.98;44.86;98944.81;4926676;28;103195;-76
2023/08/22 09:14:34;;;;;;;5.05;3.40;;;;;;;39.16;43.73;98945.41;4924833;28;102957;-77
2023/08/22 09:17:02;;;;;;;5.47;4.38;;;;;;;39.25;44.47;98951.97;4909926;28;102930;-77
2023/08/22 09:19:34;;;;;;;5.88;3.92;;;;;;;38.37;44.22;98948.50;4926308;28;103295;-76
2023/08/22 09:22:03;;;;;;;4.40;3.97;;;;;;;38.64;43.27;98942.50;4911089;28;103212;-78
2023/08/22 09:24:34;;;;;;;5.72;4.00;;;;;;;39.33;45.83;98945.81;4930230;28;102697;-77
2023/08/22 09:27:07;;;;;;;4.28;3.80;;;;;;;40.00;43.74;98941.22;4930260;28;102732;-77
2023/08/22 09:29:35;;;;;;;6.20;4.53;;;;;;;37.48;46.44;98943.00;4929702;28;103298;-77
2023/08/22 09:32:05;;;;;;;4.97;4.47;;;;;;;36.62;48.73;98948.50;4912513;28;103223;-76
2023/08/22 09:34:36;;;;;;;7.73;4.30;;;;;;;37.34;48.31;98939.13;4927031;28;103348;-77
2023/08/22 09:37:04;;;;;;;4.78;4.28;;;;;;;37.81;45.80;98939.59;4929298;28;102741;-76
2023/08/22 09:39:36;;;;;;;4.40;3.90;;;;;;;37.93;46.88;98931.84;4929668;28;104559;-77
2023/08/22 09:42:08;;;;;;;4.57;3.97;;;;;;;39.41;44.83;98931.38;4929449;28;103145;-77
2023/08/22 09:44:37;;;;;;;6.57;4.57;;;;;;;39.16;43.70;98928.03;4929625;28;102731;-76
2023/08/22 09:47:08;;;;;;;4.80;4.30;;;;;;;38.26;45.10;98925.59;4929673;28;103195;-77
2023/08/22 09:49:38;;;;;;;5.65;4.20;;;;;;;38.38;44.34;98932.75;4929611;28;103290;-77
2023/08/22 09:52:06;;;;;;;4.60;4.20;;;;;;;38.13;45.76;98920.72;4929393;28;103218;-77
2023/08/22 09:54:34;;;;;;;7.35;4.40;;;;;;;37.76;46.02;98920.31;4928092;28;102700;-77
2023/08/22 09:57:05;;;;;;;4.53;3.90;;;;;;;38.38;45.94;98913.41;4929283;28;103797;-77
2023/08/22 09:59:34;;;;;;;4.88;4.15;;;;;;;38.73;45.02;98924.22;4927966;28;103981;-76
2023/08/22 10:02:05;;;;;;;4.50;4.10;;;;;;;39.60;43.35;98925.91;4928991;28;103190;-77
2023/08/22 10:04:34;;;;;;;5.50;3.97;;;;;;;39.21;42.76;98931.59;4929808;28;102784;-78
2023/08/22 10:07:03;;;;;;;4.77;3.50;;;;;;;40.15;43.22;98927.22;4911897;28;102922;-77
2023/08/22 10:09:32;;;;;;;6.53;4.22;;;;;;;37.49;46.49;98915.19;4929310;28;103351;-77
2023/08/22 10:12:03;;;;;;;5.65;3.90;;;;;;;37.17;46.96;98922.91;4928264;28;103320;-77
2023/08/22 10:14:35;;;;;;;7.37;4.53;;;;;;;36.67;49.93;98915.47;4925353;28;102764;-76
2023/08/22 10:17:03;;;;;;;6.70;4.57;;;;;;;36.88;49.44;98913.56;4910815;28;102978;-77
2023/08/22 10:19:31;;;;;;;6.60;4.33;;;;;;;37.24;48.88;98908.88;4909455;28;104122;-77
2023/08/22 10:22:08;;;;;;;4.88;4.40;;;;;;;37.98;47.34;98907.00;4916190;28;103157;-78
2023/08/22 10:24:36;;;;;;;4.87;3.67;;;;;;;38.81;46.41;98904.31;4927764;28;102848;-77
2023/08/22 10:27:05;;;;;;;6.47;4.50;;;;;;;36.68;48.67;98914.38;4928837;28;103194;-77
2023/08/22 10:29:34;;;;;;;6.28;4.63;;;;;;;37.07;47.73;98912.75;4911958;28;103408;-77
2023/08/22 10:32:23;;;;;;;7.05;4.82;;;;;;;36.52;48.26;98902.53;4928182;28;103217;-77
2023/08/22 10:35:28;;;;;;;5.43;3.97;;;;;;;38.38;46.06;98911.50;4928624;28;103076;-77
2023/08/22 10:37:59;;;;;;;4.63;4.20;;;;;;;38.91;45.60;98900.66;4929129;28;103004;-77
2023/08/22 10:40:30;;;;;;;6.65;5.07;;;;;;;37.79;45.91;98908.72;4928732;28;103367;-77
2023/08/22 10:43:13;;;;;;;4.95;4.55;;;;;;;38.88;45.22;98904.78;4928796;28;103310;-78
2023/08/22 10:45:43;;;;;;;5.70;4.50;;;;;;;38.22;45.97;98908.00;4929404;28;102734;-77
2023/08/22 10:48:13;;;;;;;4.75;4.35;;;;;;;37.73;45.87;98902.41;4929263;28;102568;-77
2023/08/22 10:50:45;;;;;;;5.45;4.15;;;;;;;38.71;44.61;98904.38;4927190;28;104073;-78
2023/08/22 10:53:21;;;;;;;6.05;4.60;;;;;;;38.29;44.52;98908.47;4928624;28;103263;-77
2023/08/22 10:55:50;;;;;;;4.30;3.90;;;;;;;39.58;42.62;98905.22;4929226;28;102856;-77
2023/08/22 10:58:40;;;;;;;5.00;4.40;;;;;;;40.05;42.85;98902.44;4911655;28;103010;-77
2023/08/22 11:01:12;;;;;;;6.30;4.05;;;;;;;38.91;45.22;98893.16;4911332;28;103491;-77
2023/08/22 11:03:42;;;;;;;4.70;4.20;;;;;;;38.00;46.83;98899.28;4911826;28;102987;-77
2023/08/22 11:06:19;;;;;;;5.33;4.60;;;;;;;35.54;48.75;98895.28;4928055;28;102843;-77
2023/08/22 11:08:48;;;;;;;6.70;4.70;;;;;;;37.98;45.80;98886.91;4911908;28;104233;-77
2023/08/22 11:11:17;;;;;;;5.60;4.25;;;;;;;39.35;42.75;98893.88;4928310;28;103278;-78
2023/08/22 11:13:45;;;;;;;7.17;4.80;;;;;;;39.30;42.42;98888.38;4910888;28;103006;-77
2023/08/22 11:16:14;;;;;;;5.78;4.50;;;;;;;40.08;41.50;98890.81;4926646;28;102826;-77
2023/08/22 11:18:43;;;;;;;5.80;4.38;;;;;;;40.12;40.31;98891.00;4928470;28;102738;-77
2023/08/22 11:21:14;;;;;;;5.45;4.07;;;;;;;40.87;39.85;98880.72;4928298;28;103152;-77
2023/08/22 11:23:43;;;;;;;5.33;4.73;;;;;;;38.70;43.69;98886.97;4927805;28;103164;-77
2023/08/22 11:26:13;;;;;;;5.88;4.68;;;;;;;37.78;43.59;98896.06;4927854;28;102715;-77
2023/08/22 11:28:42;;;;;;;6.67;4.57;;;;;;;37.05;46.02;98881.94;4911155;28;102817;-77
2023/08/22 11:31:16;;;;;;;6.38;4.43;;;;;;;37.94;45.96;98883.88;4928596;28;103329;-77
2023/08/22 11:33:47;;;;;;;5.20;4.10;;;;;;;36.25;45.92;98884.59;4928404;28;103288;-77
2023/08/22 11:36:16;;;;;;;6.13;4.55;;;;;;;36.78;45.91;98883.28;4927955;28;102812;-77
2023/08/22 11:38:44;;;;;;;4.75;4.25;;;;;;;37.65;46.06;98880.09;4926507;28;103172;-77